Terminal Aerodrome Forecast
Issued by NWS

Current Version | Previous Version | Text Only | Print | Product List | Glossary On
Versions: 1 2 3 4 5 6 7 8 9 10 11 12 13 14 15
000
FTUS42 TJSJ 252300 RRA
TAFISX
TAF
TISX 252339Z 2600/2624 07012KT P6SM FEW022 SCT040
     FM260430 06012KT P6SM VCSH SCT025 SCT040
     FM261450 09016G24KT P6SM FEW025 SCT060
      AMD NOT SKED=

USA.gov is the U.S. government's official web portal to all federal, state and local government web resources and services.